sensor_id;sensor_type;location;lat;lon;timestamp;pressure;altitude;pressure_sealevel;temperature;humidity
77381;BME280;66439;50.106;10.996;2023-04-03T00:00:06;99651.58;;;4.64;65.69
77381;BME280;66439;50.106;10.996;2023-04-03T00:02:30;99649.58;;;4.62;65.63
77381;BME280;66439;50.106;10.996;2023-04-03T00:04:33;99649.67;;;4.59;65.56
77381;BME280;66439;50.106;10.996;2023-04-03T00:06:36;99651.86;;;4.58;65.41
77381;BME280;66439;50.106;10.996;2023-04-03T00:08:41;99653.14;;;4.57;65.71
77381;BME280;66439;50.106;10.996;2023-04-03T00:10:45;99650.66;;;4.58;65.64
77381;BME280;66439;50.106;10.996;2023-04-03T00:12:48;99649.58;;;4.58;65.54
77381;BME280;66439;50.106;10.996;2023-04-03T00:14:51;99650.10;;;4.60;65.09
77381;BME280;66439;50.106;10.996;2023-04-03T00:16:54;99643.09;;;4.63;64.71
77381;BME280;66439;50.106;10.996;2023-04-03T00:18:57;99642.41;;;4.62;63.76
77381;BME280;66439;50.106;10.996;2023-04-03T00:21:01;99642.39;;;4.60;63.90
77381;BME280;66439;50.106;10.996;2023-04-03T00:23:04;99648.25;;;4.62;64.56
77381;BME280;66439;50.106;10.996;2023-04-03T00:25:10;99652.41;;;4.64;64.83
77381;BME280;66439;50.106;10.996;2023-04-03T00:27:13;99651.34;;;4.67;65.09
77381;BME280;66439;50.106;10.996;2023-04-03T00:29:15;99655.38;;;4.69;64.89
77381;BME280;66439;50.106;10.996;2023-04-03T00:31:25;99653.88;;;4.71;64.77
77381;BME280;66439;50.106;10.996;2023-04-03T00:33:30;99652.00;;;4.70;64.43
77381;BME280;66439;50.106;10.996;2023-04-03T00:35:34;99653.31;;;4.69;63.99
77381;BME280;66439;50.106;10.996;2023-04-03T00:37:37;99649.09;;;4.67;63.55
77381;BME280;66439;50.106;10.996;2023-04-03T00:39:40;99651.45;;;4.66;63.95
77381;BME280;66439;50.106;10.996;2023-04-03T00:41:43;99653.54;;;4.66;64.23
77381;BME280;66439;50.106;10.996;2023-04-03T00:43:48;99650.63;;;4.67;64.73
77381;BME280;66439;50.106;10.996;2023-04-03T00:45:53;99652.98;;;4.68;64.89
77381;BME280;66439;50.106;10.996;2023-04-03T00:47:58;99650.44;;;4.69;65.02
77381;BME280;66439;50.106;10.996;2023-04-03T00:50:04;99650.02;;;4.70;64.90
77381;BME280;66439;50.106;10.996;2023-04-03T00:52:13;99651.52;;;4.71;65.26
77381;BME280;66439;50.106;10.996;2023-04-03T00:54:23;99656.81;;;4.73;65.33
77381;BME280;66439;50.106;10.996;2023-04-03T00:56:27;99652.39;;;4.74;65.29
77381;BME280;66439;50.106;10.996;2023-04-03T00:58:44;99653.92;;;4.74;64.52
77381;BME280;66439;50.106;10.996;2023-04-03T01:00:54;99658.77;;;4.71;63.54
77381;BME280;66439;50.106;10.996;2023-04-03T01:03:00;99656.08;;;4.69;63.98
77381;BME280;66439;50.106;10.996;2023-04-03T01:05:06;99655.28;;;4.68;63.77
77381;BME280;66439;50.106;10.996;2023-04-03T01:07:21;99660.03;;;4.66;63.25
77381;BME280;66439;50.106;10.996;2023-04-03T01:09:28;99656.95;;;4.64;63.92
77381;BME280;66439;50.106;10.996;2023-04-03T01:11:32;99658.40;;;4.67;64.54
77381;BME280;66439;50.106;10.996;2023-04-03T01:13:35;99653.70;;;4.70;64.74
77381;BME280;66439;50.106;10.996;2023-04-03T01:15:38;99654.54;;;4.75;64.51
77381;BME280;66439;50.106;10.996;2023-04-03T01:17:49;99656.39;;;4.78;64.49
77381;BME280;66439;50.106;10.996;2023-04-03T01:22:25;99655.91;;;4.82;64.68
77381;BME280;66439;50.106;10.996;2023-04-03T01:24:37;99656.44;;;4.84;64.58
77381;BME280;66439;50.106;10.996;2023-04-03T01:26:44;99654.48;;;4.84;64.77
77381;BME280;66439;50.106;10.996;2023-04-03T01:28:47;99654.94;;;4.85;65.01
77381;BME280;66439;50.106;10.996;2023-04-03T01:31:22;99656.00;;;4.85;64.59
77381;BME280;66439;50.106;10.996;2023-04-03T01:33:29;99658.57;;;4.84;64.63
77381;BME280;66439;50.106;10.996;2023-04-03T01:35:32;99657.38;;;4.83;64.60
77381;BME280;66439;50.106;10.996;2023-04-03T01:37:36;99658.68;;;4.82;64.78
77381;BME280;66439;50.106;10.996;2023-04-03T01:39:39;99659.88;;;4.83;64.81
77381;BME280;66439;50.106;10.996;2023-04-03T01:41:47;99656.98;;;4.82;65.11
77381;BME280;66439;50.106;10.996;2023-04-03T01:43:58;99658.21;;;4.82;65.13
77381;BME280;66439;50.106;10.996;2023-04-03T01:46:01;99660.16;;;4.82;65.20
77381;BME280;66439;50.106;10.996;2023-04-03T01:48:04;99660.01;;;4.82;65.52
77381;BME280;66439;50.106;10.996;2023-04-03T01:50:07;99661.43;;;4.81;65.48
77381;BME280;66439;50.106;10.996;2023-04-03T01:52:10;99658.67;;;4.81;65.39
77381;BME280;66439;50.106;10.996;2023-04-03T01:54:13;99661.79;;;4.81;65.52
77381;BME280;66439;50.106;10.996;2023-04-03T01:56:16;99663.05;;;4.81;65.52
77381;BME280;66439;50.106;10.996;2023-04-03T01:58:20;99664.52;;;4.78;64.87
77381;BME280;66439;50.106;10.996;2023-04-03T02:00:23;99664.03;;;4.75;65.13
77381;BME280;66439;50.106;10.996;2023-04-03T02:02:26;99665.70;;;4.74;65.48
77381;BME280;66439;50.106;10.996;2023-04-03T02:04:29;99669.77;;;4.74;65.27
77381;BME280;66439;50.106;10.996;2023-04-03T02:06:32;99667.58;;;4.74;65.17
77381;BME280;66439;50.106;10.996;2023-04-03T02:08:37;99668.20;;;4.73;64.99
77381;BME280;66439;50.106;10.996;2023-04-03T02:10:41;99664.02;;;4.71;64.85
77381;BME280;66439;50.106;10.996;2023-04-03T02:12:44;99663.27;;;4.67;64.80
77381;BME280;66439;50.106;10.996;2023-04-03T02:14:46;99665.34;;;4.65;65.13
77381;BME280;66439;50.106;10.996;2023-04-03T02:16:50;99671.29;;;4.66;65.00
77381;BME280;66439;50.106;10.996;2023-04-03T02:18:54;99671.97;;;4.63;65.01
77381;BME280;66439;50.106;10.996;2023-04-03T02:20:58;99671.14;;;4.60;64.92
77381;BME280;66439;50.106;10.996;2023-04-03T02:23:03;99676.51;;;4.59;65.28
77381;BME280;66439;50.106;10.996;2023-04-03T02:25:06;99671.02;;;4.62;65.47
77381;BME280;66439;50.106;10.996;2023-04-03T02:27:12;99675.38;;;4.62;65.14
77381;BME280;66439;50.106;10.996;2023-04-03T02:29:15;99675.07;;;4.60;64.88
77381;BME280;66439;50.106;10.996;2023-04-03T02:31:18;99671.50;;;4.56;64.57
77381;BME280;66439;50.106;10.996;2023-04-03T02:33:22;99672.39;;;4.52;64.64
77381;BME280;66439;50.106;10.996;2023-04-03T02:35:25;99669.66;;;4.46;64.13
77381;BME280;66439;50.106;10.996;2023-04-03T02:37:29;99670.19;;;4.39;64.08
77381;BME280;66439;50.106;10.996;2023-04-03T02:39:32;99669.29;;;4.35;64.22
77381;BME280;66439;50.106;10.996;2023-04-03T02:41:40;99670.23;;;4.32;64.18
77381;BME280;66439;50.106;10.996;2023-04-03T02:43:47;99670.69;;;4.26;64.06
77381;BME280;66439;50.106;10.996;2023-04-03T02:45:51;99667.17;;;4.20;63.89
77381;BME280;66439;50.106;10.996;2023-04-03T02:47:54;99671.26;;;4.12;63.88
77381;BME280;66439;50.106;10.996;2023-04-03T02:49:58;99676.34;;;4.10;64.18
77381;BME280;66439;50.106;10.996;2023-04-03T02:52:00;99673.55;;;4.10;64.39
77381;BME280;66439;50.106;10.996;2023-04-03T02:54:03;99675.41;;;4.08;64.30
77381;BME280;66439;50.106;10.996;2023-04-03T02:56:08;99676.55;;;4.05;64.17
77381;BME280;66439;50.106;10.996;2023-04-03T02:58:11;99680.98;;;4.02;64.27
77381;BME280;66439;50.106;10.996;2023-04-03T03:00:14;99679.50;;;3.99;64.07
77381;BME280;66439;50.106;10.996;2023-04-03T03:02:18;99681.29;;;3.96;64.21
77381;BME280;66439;50.106;10.996;2023-04-03T03:04:21;99681.18;;;3.92;64.20
77381;BME280;66439;50.106;10.996;2023-04-03T03:06:26;99680.09;;;3.88;64.28
77381;BME280;66439;50.106;10.996;2023-04-03T03:08:40;99681.95;;;3.84;64.43
77381;BME280;66439;50.106;10.996;2023-04-03T03:10:44;99685.98;;;3.82;64.35
77381;BME280;66439;50.106;10.996;2023-04-03T03:12:46;99688.75;;;3.78;64.37
77381;BME280;66439;50.106;10.996;2023-04-03T03:14:50;99688.30;;;3.75;64.60
77381;BME280;66439;50.106;10.996;2023-04-03T03:16:54;99691.23;;;3.73;64.64
77381;BME280;66439;50.106;10.996;2023-04-03T03:19:01;99694.55;;;3.71;64.62
77381;BME280;66439;50.106;10.996;2023-04-03T03:21:05;99693.45;;;3.69;64.53
77381;BME280;66439;50.106;10.996;2023-04-03T03:23:30;99692.02;;;3.65;64.69
77381;BME280;66439;50.106;10.996;2023-04-03T03:25:39;99695.05;;;3.64;64.81
77381;BME280;66439;50.106;10.996;2023-04-03T03:27:43;99697.89;;;3.64;64.73
77381;BME280;66439;50.106;10.996;2023-04-03T03:29:58;99698.98;;;3.61;64.60
77381;BME280;66439;50.106;10.996;2023-04-03T03:32:01;99699.83;;;3.59;64.61
77381;BME280;66439;50.106;10.996;2023-04-03T03:34:04;99700.09;;;3.58;64.66
77381;BME280;66439;50.106;10.996;2023-04-03T03:36:09;99698.21;;;3.55;64.57
77381;BME280;66439;50.106;10.996;2023-04-03T03:38:14;99701.21;;;3.52;64.73
77381;BME280;66439;50.106;10.996;2023-04-03T03:40:20;99701.94;;;3.52;64.75
77381;BME280;66439;50.106;10.996;2023-04-03T03:42:25;99701.89;;;3.55;64.81
77381;BME280;66439;50.106;10.996;2023-04-03T03:44:29;99704.67;;;3.57;64.70
77381;BME280;66439;50.106;10.996;2023-04-03T03:46:36;99704.69;;;3.62;64.51
77381;BME280;66439;50.106;10.996;2023-04-03T03:48:40;99706.43;;;3.62;64.48
77381;BME280;66439;50.106;10.996;2023-04-03T03:50:43;99705.55;;;3.62;64.53
77381;BME280;66439;50.106;10.996;2023-04-03T03:52:46;99702.36;;;3.62;64.53
77381;BME280;66439;50.106;10.996;2023-04-03T03:54:48;99704.09;;;3.63;64.58
77381;BME280;66439;50.106;10.996;2023-04-03T03:56:51;99704.27;;;3.62;64.64
77381;BME280;66439;50.106;10.996;2023-04-03T03:58:54;99704.69;;;3.62;64.59
77381;BME280;66439;50.106;10.996;2023-04-03T04:01:03;99703.23;;;3.60;64.60
77381;BME280;66439;50.106;10.996;2023-04-03T04:03:14;99702.58;;;3.62;64.67
77381;BME280;66439;50.106;10.996;2023-04-03T04:05:18;99704.14;;;3.62;64.64
77381;BME280;66439;50.106;10.996;2023-04-03T04:07:21;99703.56;;;3.61;64.54
77381;BME280;66439;50.106;10.996;2023-04-03T04:09:24;99704.02;;;3.61;64.65
77381;BME280;66439;50.106;10.996;2023-04-03T04:11:27;99706.71;;;3.58;64.49
77381;BME280;66439;50.106;10.996;2023-04-03T04:13:31;99705.59;;;3.55;64.47
77381;BME280;66439;50.106;10.996;2023-04-03T04:15:39;99703.95;;;3.51;64.34
77381;BME280;66439;50.106;10.996;2023-04-03T04:17:44;99702.52;;;3.46;64.38
77381;BME280;66439;50.106;10.996;2023-04-03T04:19:47;99705.45;;;3.42;64.42
77381;BME280;66439;50.106;10.996;2023-04-03T04:21:53;99708.52;;;3.38;64.56
77381;BME280;66439;50.106;10.996;2023-04-03T04:23:56;99705.36;;;3.36;64.57
77381;BME280;66439;50.106;10.996;2023-04-03T04:26:00;99704.14;;;3.34;64.52
77381;BME280;66439;50.106;10.996;2023-04-03T04:28:05;99702.66;;;3.30;64.63
77381;BME280;66439;50.106;10.996;2023-04-03T04:30:11;99700.67;;;3.29;64.74
77381;BME280;66439;50.106;10.996;2023-04-03T04:32:16;99702.75;;;3.29;64.66
77381;BME280;66439;50.106;10.996;2023-04-03T04:34:19;99703.17;;;3.30;64.40
77381;BME280;66439;50.106;10.996;2023-04-03T04:36:23;99703.08;;;3.31;64.38
77381;BME280;66439;50.106;10.996;2023-04-03T04:38:28;99706.51;;;3.32;64.23
77381;BME280;66439;50.106;10.996;2023-04-03T04:40:31;99711.55;;;3.31;63.90
77381;BME280;66439;50.106;10.996;2023-04-03T04:42:35;99713.98;;;3.28;63.99
77381;BME280;66439;50.106;10.996;2023-04-03T04:44:39;99715.77;;;3.28;64.14
77381;BME280;66439;50.106;10.996;2023-04-03T04:46:43;99714.58;;;3.30;64.14
77381;BME280;66439;50.106;10.996;2023-04-03T04:48:46;99718.49;;;3.29;63.93
77381;BME280;66439;50.106;10.996;2023-04-03T04:50:51;99722.70;;;3.27;63.86
77381;BME280;66439;50.106;10.996;2023-04-03T04:52:55;99724.04;;;3.28;64.11
77381;BME280;66439;50.106;10.996;2023-04-03T04:54:58;99724.45;;;3.27;64.05
77381;BME280;66439;50.106;10.996;2023-04-03T04:57:04;99724.21;;;3.25;63.81
77381;BME280;66439;50.106;10.996;2023-04-03T04:59:09;99722.67;;;3.25;64.09
77381;BME280;66439;50.106;10.996;2023-04-03T05:01:13;99727.21;;;3.25;64.09
77381;BME280;66439;50.106;10.996;2023-04-03T05:03:23;99728.95;;;3.25;64.11
77381;BME280;66439;50.106;10.996;2023-04-03T05:05:26;99732.83;;;3.25;64.04
77381;BME280;66439;50.106;10.996;2023-04-03T05:07:29;99736.62;;;3.23;64.09
77381;BME280;66439;50.106;10.996;2023-04-03T05:09:32;99737.52;;;3.21;64.22
77381;BME280;66439;50.106;10.996;2023-04-03T05:11:35;99738.17;;;3.21;64.48
77381;BME280;66439;50.106;10.996;2023-04-03T05:13:39;99741.92;;;3.25;64.62
77381;BME280;66439;50.106;10.996;2023-04-03T05:15:42;99742.88;;;3.26;64.57
77381;BME280;66439;50.106;10.996;2023-04-03T05:17:46;99745.14;;;3.27;64.55
77381;BME280;66439;50.106;10.996;2023-04-03T05:19:50;99744.52;;;3.25;64.39
77381;BME280;66439;50.106;10.996;2023-04-03T05:21:55;99746.67;;;3.24;64.58
77381;BME280;66439;50.106;10.996;2023-04-03T05:23:59;99749.55;;;3.24;64.51
77381;BME280;66439;50.106;10.996;2023-04-03T05:26:10;99750.63;;;3.26;64.49
77381;BME280;66439;50.106;10.996;2023-04-03T05:28:16;99752.86;;;3.29;64.62
77381;BME280;66439;50.106;10.996;2023-04-03T05:30:20;99754.20;;;3.32;64.56
77381;BME280;66439;50.106;10.996;2023-04-03T05:32:25;99756.30;;;3.34;64.66
77381;BME280;66439;50.106;10.996;2023-04-03T05:34:52;99758.35;;;3.33;64.09
77381;BME280;66439;50.106;10.996;2023-04-03T05:36:56;99758.92;;;3.32;63.80
77381;BME280;66439;50.106;10.996;2023-04-03T05:39:02;99758.21;;;3.30;63.47
77381;BME280;66439;50.106;10.996;2023-04-03T05:41:07;99760.91;;;3.26;63.21
77381;BME280;66439;50.106;10.996;2023-04-03T05:43:13;99764.92;;;3.24;63.02
77381;BME280;66439;50.106;10.996;2023-04-03T05:45:16;99761.58;;;3.22;62.98
77381;BME280;66439;50.106;10.996;2023-04-03T05:47:20;99764.11;;;3.18;62.73
77381;BME280;66439;50.106;10.996;2023-04-03T05:49:23;99766.12;;;3.12;62.57
77381;BME280;66439;50.106;10.996;2023-04-03T05:51:33;99769.12;;;3.07;62.69
77381;BME280;66439;50.106;10.996;2023-04-03T05:53:43;99770.80;;;3.06;62.78
77381;BME280;66439;50.106;10.996;2023-04-03T05:55:47;99772.23;;;3.08;62.92
77381;BME280;66439;50.106;10.996;2023-04-03T05:57:52;99778.23;;;3.07;62.65
77381;BME280;66439;50.106;10.996;2023-04-03T05:59:56;99778.30;;;3.06;62.82
77381;BME280;66439;50.106;10.996;2023-04-03T06:02:00;99775.73;;;3.08;62.58
77381;BME280;66439;50.106;10.996;2023-04-03T06:04:05;99777.23;;;3.09;62.39
77381;BME280;66439;50.106;10.996;2023-04-03T06:06:13;99779.70;;;3.13;62.79
77381;BME280;66439;50.106;10.996;2023-04-03T06:08:16;99780.79;;;3.18;62.85
77381;BME280;66439;50.106;10.996;2023-04-03T06:10:19;99781.73;;;3.16;62.57
77381;BME280;66439;50.106;10.996;2023-04-03T06:12:23;99785.44;;;3.16;62.67
77381;BME280;66439;50.106;10.996;2023-04-03T06:14:26;99783.95;;;3.17;62.49
77381;BME280;66439;50.106;10.996;2023-04-03T06:16:29;99784.50;;;3.17;62.43
77381;BME280;66439;50.106;10.996;2023-04-03T06:18:32;99786.71;;;3.18;62.60
77381;BME280;66439;50.106;10.996;2023-04-03T06:20:36;99787.48;;;3.22;62.65
77381;BME280;66439;50.106;10.996;2023-04-03T06:22:40;99786.48;;;3.24;62.27
77381;BME280;66439;50.106;10.996;2023-04-03T06:24:46;99788.73;;;3.19;61.64
77381;BME280;66439;50.106;10.996;2023-04-03T06:26:49;99789.73;;;3.15;61.49
77381;BME280;66439;50.106;10.996;2023-04-03T06:28:53;99798.95;;;3.11;61.29
77381;BME280;66439;50.106;10.996;2023-04-03T06:30:56;99796.13;;;3.11;61.61
77381;BME280;66439;50.106;10.996;2023-04-03T06:32:59;99801.59;;;3.11;61.65
77381;BME280;66439;50.106;10.996;2023-04-03T06:35:02;99802.48;;;3.13;61.73
77381;BME280;66439;50.106;10.996;2023-04-03T06:37:06;99808.04;;;3.11;61.01
77381;BME280;66439;50.106;10.996;2023-04-03T06:39:13;99813.33;;;3.06;60.95
77381;BME280;66439;50.106;10.996;2023-04-03T06:41:18;99815.14;;;3.05;61.05
77381;BME280;66439;50.106;10.996;2023-04-03T06:43:21;99816.34;;;3.03;61.13
77381;BME280;66439;50.106;10.996;2023-04-03T06:45:27;99819.45;;;3.01;61.23
77381;BME280;66439;50.106;10.996;2023-04-03T06:47:30;99822.88;;;3.02;61.53
77381;BME280;66439;50.106;10.996;2023-04-03T06:49:32;99820.83;;;3.04;61.57
77381;BME280;66439;50.106;10.996;2023-04-03T06:51:36;99824.20;;;3.06;61.45
77381;BME280;66439;50.106;10.996;2023-04-03T06:53:39;99826.84;;;3.08;61.56
77381;BME280;66439;50.106;10.996;2023-04-03T06:55:43;99823.38;;;3.10;61.28
77381;BME280;66439;50.106;10.996;2023-04-03T06:57:46;99821.43;;;3.10;61.56
77381;BME280;66439;50.106;10.996;2023-04-03T06:59:49;99829.61;;;3.11;61.28
77381;BME280;66439;50.106;10.996;2023-04-03T07:01:53;99836.70;;;3.10;60.58
77381;BME280;66439;50.106;10.996;2023-04-03T07:03:56;99838.02;;;3.06;60.11
77381;BME280;66439;50.106;10.996;2023-04-03T07:05:59;99841.13;;;3.01;60.42
77381;BME280;66439;50.106;10.996;2023-04-03T07:08:04;99844.30;;;2.99;60.40
77381;BME280;66439;50.106;10.996;2023-04-03T07:10:07;99847.16;;;2.98;60.56
77381;BME280;66439;50.106;10.996;2023-04-03T07:12:10;99848.66;;;2.94;60.50
77381;BME280;66439;50.106;10.996;2023-04-03T07:14:14;99854.10;;;2.91;60.34
77381;BME280;66439;50.106;10.996;2023-04-03T07:16:18;99858.23;;;2.87;60.30
77381;BME280;66439;50.106;10.996;2023-04-03T07:18:22;99856.82;;;2.85;60.33
77381;BME280;66439;50.106;10.996;2023-04-03T07:20:25;99862.89;;;2.85;60.68
77381;BME280;66439;50.106;10.996;2023-04-03T07:22:29;99864.96;;;2.86;60.24
77381;BME280;66439;50.106;10.996;2023-04-03T07:24:37;99862.27;;;2.84;60.33
77381;BME280;66439;50.106;10.996;2023-04-03T07:26:39;99864.48;;;2.85;60.71
77381;BME280;66439;50.106;10.996;2023-04-03T07:28:42;99867.05;;;2.89;60.85
77381;BME280;66439;50.106;10.996;2023-04-03T07:30:48;99870.90;;;2.91;60.68
77381;BME280;66439;50.106;10.996;2023-04-03T07:32:52;99875.08;;;2.91;60.30
77381;BME280;66439;50.106;10.996;2023-04-03T07:34:55;99873.58;;;2.90;60.33
77381;BME280;66439;50.106;10.996;2023-04-03T07:36:58;99877.02;;;2.91;60.42
77381;BME280;66439;50.106;10.996;2023-04-03T07:39:01;99876.14;;;2.94;60.16
77381;BME280;66439;50.106;10.996;2023-04-03T07:41:04;99877.38;;;2.97;60.25
77381;BME280;66439;50.106;10.996;2023-04-03T07:43:11;99876.84;;;3.01;60.23
77381;BME280;66439;50.106;10.996;2023-04-03T07:45:15;99878.30;;;3.03;59.76
77381;BME280;66439;50.106;10.996;2023-04-03T07:47:19;99877.86;;;3.07;59.62
77381;BME280;66439;50.106;10.996;2023-04-03T07:49:26;99876.16;;;3.09;59.25
77381;BME280;66439;50.106;10.996;2023-04-03T07:51:29;99874.34;;;3.12;59.41
77381;BME280;66439;50.106;10.996;2023-04-03T07:53:33;99880.58;;;3.16;59.32
77381;BME280;66439;50.106;10.996;2023-04-03T07:55:36;99879.58;;;3.20;59.34
77381;BME280;66439;50.106;10.996;2023-04-03T07:57:47;99877.69;;;3.22;58.34
77381;BME280;66439;50.106;10.996;2023-04-03T07:59:53;99878.06;;;3.22;58.64
77381;BME280;66439;50.106;10.996;2023-04-03T08:01:57;99878.35;;;3.23;58.35
77381;BME280;66439;50.106;10.996;2023-04-03T08:04:01;99875.52;;;3.25;58.25
77381;BME280;66439;50.106;10.996;2023-04-03T08:06:07;99877.16;;;3.27;57.94
77381;BME280;66439;50.106;10.996;2023-04-03T08:08:20;99880.77;;;3.30;57.86
77381;BME280;66439;50.106;10.996;2023-04-03T08:10:24;99881.23;;;3.36;57.76
77381;BME280;66439;50.106;10.996;2023-04-03T08:12:27;99876.00;;;3.44;58.00
77381;BME280;66439;50.106;10.996;2023-04-03T08:14:33;99875.08;;;3.49;57.53
77381;BME280;66439;50.106;10.996;2023-04-03T08:16:38;99881.52;;;3.54;57.88
77381;BME280;66439;50.106;10.996;2023-04-03T08:18:41;99881.73;;;3.56;57.35
77381;BME280;66439;50.106;10.996;2023-04-03T08:20:45;99882.95;;;3.59;57.61
77381;BME280;66439;50.106;10.996;2023-04-03T08:22:49;99888.20;;;3.61;57.82
77381;BME280;66439;50.106;10.996;2023-04-03T08:24:54;99886.52;;;3.65;57.53
77381;BME280;66439;50.106;10.996;2023-04-03T08:27:01;99881.48;;;3.72;57.69
77381;BME280;66439;50.106;10.996;2023-04-03T08:29:04;99885.54;;;3.76;56.52
77381;BME280;66439;50.106;10.996;2023-04-03T08:31:11;99885.39;;;3.81;56.30
77381;BME280;66439;50.106;10.996;2023-04-03T08:33:14;99885.21;;;3.84;55.93
77381;BME280;66439;50.106;10.996;2023-04-03T08:35:19;99886.77;;;3.86;55.90
77381;BME280;66439;50.106;10.996;2023-04-03T08:37:22;99885.19;;;3.91;55.92
77381;BME280;66439;50.106;10.996;2023-04-03T08:39:25;99884.30;;;3.94;54.97
77381;BME280;66439;50.106;10.996;2023-04-03T08:46:22;99888.36;;;3.88;53.17
77381;BME280;66439;50.106;10.996;2023-04-03T08:48:41;99891.56;;;3.81;52.34
77381;BME280;66439;50.106;10.996;2023-04-03T08:50:48;99890.58;;;3.77;52.71
77381;BME280;66439;50.106;10.996;2023-04-03T08:52:57;99891.19;;;3.78;53.03
77381;BME280;66439;50.106;10.996;2023-04-03T08:55:07;99891.98;;;3.82;53.11
77381;BME280;66439;50.106;10.996;2023-04-03T08:57:13;99886.78;;;3.86;52.56
77381;BME280;66439;50.106;10.996;2023-04-03T08:59:23;99893.73;;;3.92;52.07
77381;BME280;66439;50.106;10.996;2023-04-03T09:01:34;99887.79;;;3.96;51.57
77381;BME280;66439;50.106;10.996;2023-04-03T09:03:39;99893.71;;;4.02;51.39
77381;BME280;66439;50.106;10.996;2023-04-03T09:05:55;99897.33;;;4.03;50.53
77381;BME280;66439;50.106;10.996;2023-04-03T09:10:08;99900.17;;;4.02;50.82
77381;BME280;66439;50.106;10.996;2023-04-03T09:12:25;99898.72;;;4.03;50.22
77381;BME280;66439;50.106;10.996;2023-04-03T09:17:33;99899.88;;;4.01;50.26
77381;BME280;66439;50.106;10.996;2023-04-03T09:19:48;99905.42;;;4.02;49.79
77381;BME280;66439;50.106;10.996;2023-04-03T09:21:57;99906.15;;;3.97;49.28
77381;BME280;66439;50.106;10.996;2023-04-03T09:24:01;99909.97;;;3.93;49.93
77381;BME280;66439;50.106;10.996;2023-04-03T09:26:16;99909.34;;;3.87;49.10
77381;BME280;66439;50.106;10.996;2023-04-03T09:28:20;99912.91;;;3.76;48.59
77381;BME280;66439;50.106;10.996;2023-04-03T09:30:25;99913.89;;;3.70;49.13
77381;BME280;66439;50.106;10.996;2023-04-03T09:32:33;99912.08;;;3.69;49.67
77381;BME280;66439;50.106;10.996;2023-04-03T09:34:39;99906.98;;;3.71;48.97
77381;BME280;66439;50.106;10.996;2023-04-03T09:36:49;99906.38;;;3.77;49.21
77381;BME280;66439;50.106;10.996;2023-04-03T09:39:10;99904.80;;;3.82;49.81
77381;BME280;66439;50.106;10.996;2023-04-03T09:41:16;99904.91;;;3.90;50.30
77381;BME280;66439;50.106;10.996;2023-04-03T09:43:21;99907.30;;;3.98;50.20
77381;BME280;66439;50.106;10.996;2023-04-03T09:45:30;99912.35;;;4.04;49.64
77381;BME280;66439;50.106;10.996;2023-04-03T09:47:35;99904.62;;;4.08;49.50
77381;BME280;66439;50.106;10.996;2023-04-03T09:49:51;99903.41;;;4.13;49.26
77381;BME280;66439;50.106;10.996;2023-04-03T09:52:22;99895.64;;;4.21;49.02
77381;BME280;66439;50.106;10.996;2023-04-03T09:54:36;99898.73;;;4.29;48.48
77381;BME280;66439;50.106;10.996;2023-04-03T09:56:49;99897.82;;;4.34;48.55
77381;BME280;66439;50.106;10.996;2023-04-03T10:01:02;99896.19;;;4.45;48.35
77381;BME280;66439;50.106;10.996;2023-04-03T10:03:24;99895.64;;;4.40;47.50
77381;BME280;66439;50.106;10.996;2023-04-03T10:05:31;99897.06;;;4.34;47.28
77381;BME280;66439;50.106;10.996;2023-04-03T10:07:36;99896.01;;;4.32;47.55
77381;BME280;66439;50.106;10.996;2023-04-03T10:09:39;99894.03;;;4.31;46.82
77381;BME280;66439;50.106;10.996;2023-04-03T10:12:06;99895.70;;;4.27;46.82
77381;BME280;66439;50.106;10.996;2023-04-03T10:14:16;99891.73;;;4.29;46.62
77381;BME280;66439;50.106;10.996;2023-04-03T10:16:26;99886.27;;;4.31;46.50
77381;BME280;66439;50.106;10.996;2023-04-03T10:18:42;99886.23;;;4.36;46.79
77381;BME280;66439;50.106;10.996;2023-04-03T10:20:49;99883.30;;;4.41;46.78
77381;BME280;66439;50.106;10.996;2023-04-03T10:23:03;99880.64;;;4.46;47.09
77381;BME280;66439;50.106;10.996;2023-04-03T10:25:20;99873.92;;;4.53;47.15
77381;BME280;66439;50.106;10.996;2023-04-03T10:27:37;99872.09;;;4.56;46.80
77381;BME280;66439;50.106;10.996;2023-04-03T10:30:08;99869.79;;;4.61;46.72
77381;BME280;66439;50.106;10.996;2023-04-03T10:34:37;99866.52;;;4.72;46.68
77381;BME280;66439;50.106;10.996;2023-04-03T10:36:49;99865.30;;;4.74;46.66
77381;BME280;66439;50.106;10.996;2023-04-03T10:39:15;99864.43;;;4.76;46.89
77381;BME280;66439;50.106;10.996;2023-04-03T10:44:04;99868.34;;;4.78;46.23
77381;BME280;66439;50.106;10.996;2023-04-03T10:46:34;99869.21;;;4.69;45.15
77381;BME280;66439;50.106;10.996;2023-04-03T10:55:47;99869.38;;;4.71;46.52
77381;BME280;66439;50.106;10.996;2023-04-03T10:57:56;99863.66;;;4.75;46.22
77381;BME280;66439;50.106;10.996;2023-04-03T11:00:07;99859.06;;;4.75;45.31
77381;BME280;66439;50.106;10.996;2023-04-03T11:02:31;99855.30;;;4.76;44.44
77381;BME280;66439;50.106;10.996;2023-04-03T11:04:37;99860.97;;;4.76;43.66
77381;BME280;66439;50.106;10.996;2023-04-03T11:11:29;99858.30;;;4.92;44.91
77381;BME280;66439;50.106;10.996;2023-04-03T11:15:53;99853.14;;;4.98;43.21
77381;BME280;66439;50.106;10.996;2023-04-03T11:18:09;99851.88;;;5.00;43.86
77381;BME280;66439;50.106;10.996;2023-04-03T11:20:23;99844.86;;;5.05;43.81
77381;BME280;66439;50.106;10.996;2023-04-03T11:23:06;99846.10;;;5.11;44.55
77381;BME280;66439;50.106;10.996;2023-04-03T11:27:17;99845.55;;;5.34;44.69
77381;BME280;66439;50.106;10.996;2023-04-03T11:29:32;99835.90;;;5.35;43.41
77381;BME280;66439;50.106;10.996;2023-04-03T11:34:15;99832.46;;;5.44;43.72
77381;BME280;66439;50.106;10.996;2023-04-03T11:36:26;99821.87;;;5.47;43.92
77381;BME280;66439;50.106;10.996;2023-04-03T11:38:43;99816.34;;;5.52;43.83
77381;BME280;66439;50.106;10.996;2023-04-03T11:40:50;99820.15;;;5.55;43.52
77381;BME280;66439;50.106;10.996;2023-04-03T11:45:22;99815.44;;;5.67;44.69
77381;BME280;66439;50.106;10.996;2023-04-03T11:47:49;99816.18;;;5.73;43.59
77381;BME280;66439;50.106;10.996;2023-04-03T11:49:57;99813.61;;;5.68;42.62